PH0B4 EHRD-EHRD
Flight info
| Callsign | PH0B4 |
|---|---|
| Flight time | N/A |
| Altitude | 4000 |
| Route | VFR CIRCUITS |
| Aircraft | C172/L-SFG/C |
Departure
| Time | 2026-05-04 16:43 |
|---|---|
| Airport | Rotterdam The Hague Airport (EHRD) |
Arrival
| Time | N/A |
|---|---|
| Airport | Rotterdam The Hague Airport (EHRD) |
| Time | Latitude | Longitude | Altitude | Speed | Heading |
|---|---|---|---|---|---|
| 2026-05-04 16:20 | 51.94909 | 4.42650 | -5 ft | 0 kts | 234° |
| 2026-05-04 16:22 | 51.94915 | 4.42636 | -5 ft | 0 kts | 232° |
| 2026-05-04 16:31 | 51.94913 | 4.42632 | -32 ft | 2 kts | 229° |
| 2026-05-04 16:32 | 51.94988 | 4.42734 | -5 ft | 0 kts | 57° |
| 2026-05-04 16:33 | 51.94991 | 4.42740 | -5 ft | 0 kts | 59° |
| 2026-05-04 16:33 | 51.94992 | 4.42743 | -5 ft | 1 kts | 59° |
| 2026-05-04 16:34 | 51.95013 | 4.42798 | -5 ft | 5 kts | 54° |
| 2026-05-04 16:34 | 51.95033 | 4.42849 | -5 ft | 1 kts | 58° |
| 2026-05-04 16:35 | 51.95054 | 4.42901 | -5 ft | 0 kts | 57° |
| 2026-05-04 16:37 | 51.95076 | 4.42959 | -5 ft | 9 kts | 53° |
| 2026-05-04 16:37 | 51.95140 | 4.43121 | -5 ft | 8 kts | 58° |
| 2026-05-04 16:38 | 51.95193 | 4.43097 | -5 ft | 0 kts | 11° |
| 2026-05-04 16:39 | 51.95199 | 4.43098 | -5 ft | 0 kts | 1° |
| 2026-05-04 16:41 | 51.95339 | 4.43151 | -4 ft | 13 kts | 45° |
| 2026-05-04 16:41 | 51.95440 | 4.43405 | -6 ft | 52 kts | 58° |
| 2026-05-04 16:42 | 51.96054 | 4.45198 | 524 ft | 61 kts | 44° |
| 2026-05-04 16:43 | 51.96799 | 4.45880 | 703 ft | 73 kts | 318° |
| 2026-05-04 16:43 | 51.96731 | 4.43870 | 713 ft | 115 kts | 244° |
| 2026-05-04 16:43 | 51.96130 | 4.42938 | 603 ft | 123 kts | 225° |
| 2026-05-04 16:44 | 51.94577 | 4.38894 | 806 ft | 106 kts | 251° |
| 2026-05-04 16:45 | 51.94013 | 4.36714 | 389 ft | 89 kts | 253° |